TimeEST,TemperatureF,Dew PointF,Humidity,Sea Level PressureIn,VisibilityMPH,Wind Direction,Wind SpeedMPH,Gust SpeedMPH,PrecipitationIn,Events,Conditions,WindDirDegrees,DateUTC
12:53 AM,44.1,33.1,65,30.49,10.0,NE,11.5,-,N/A,,Overcast,40,2012-11-18 05:53:00
2:48 AM,46.4,33.8,62,30.49,10.0,NE,9.2,-,N/A,,Overcast,40,2012-11-18 07:48:00
2:53 AM,46.0,34.0,63,30.48,10.0,NE,10.4,-,N/A,,Overcast,40,2012-11-18 07:53:00
3:53 AM,46.0,34.0,63,30.48,10.0,NNE,11.5,-,N/A,,Overcast,30,2012-11-18 08:53:00
4:53 AM,46.0,35.1,66,30.49,10.0,NE,11.5,-,N/A,,Overcast,40,2012-11-18 09:53:00
5:30 AM,46.4,35.6,66,30.50,10.0,NNE,12.7,-,N/A,,Overcast,30,2012-11-18 10:30:00
5:53 AM,46.0,34.0,63,30.49,10.0,NNE,12.7,-,N/A,,Mostly Cloudy,30,2012-11-18 10:53:00
6:06 AM,46.4,33.8,62,30.51,10.0,NNE,10.4,-,N/A,,Mostly Cloudy,30,2012-11-18 11:06:00
6:53 AM,46.9,34.0,61,30.50,10.0,NNE,11.5,-,N/A,,Overcast,30,2012-11-18 11:53:00
7:53 AM,46.9,35.1,63,30.51,10.0,NE,10.4,-,N/A,,Overcast,40,2012-11-18 12:53:00
8:00 AM,46.4,35.6,66,30.52,10.0,NE,10.4,-,N/A,,Overcast,40,2012-11-18 13:00:00
8:45 AM,48.2,35.6,62,30.52,10.0,NE,12.7,-,N/A,,Overcast,40,2012-11-18 13:45:00
8:53 AM,48.9,36.0,61,30.51,10.0,NE,10.4,-,N/A,,Overcast,40,2012-11-18 13:53:00
9:34 AM,50.0,37.4,62,30.52,10.0,NE,15.0,-,N/A,,Overcast,40,2012-11-18 14:34:00
9:53 AM,50.0,37.0,61,30.51,10.0,NNE,12.7,18.4,N/A,,Overcast,30,2012-11-18 14:53:00
10:02 AM,50.0,37.4,62,30.51,10.0,NE,13.8,-,N/A,,Overcast,40,2012-11-18 15:02:00
10:44 AM,53.6,37.4,54,30.51,10.0,NNE,16.1,-,N/A,,Overcast,30,2012-11-18 15:44:00
10:53 AM,53.1,37.0,55,30.50,10.0,NNE,13.8,-,N/A,,Overcast,30,2012-11-18 15:53:00
11:53 AM,54.0,39.0,57,30.47,10.0,NE,13.8,20.7,N/A,,Mostly Cloudy,40,2012-11-18 16:53:00
12:53 PM,55.9,39.9,55,30.44,10.0,NE,16.1,21.9,N/A,,Scattered Clouds,40,2012-11-18 17:53:00
1:53 PM,55.9,39.9,55,30.42,10.0,NNE,13.8,-,N/A,,Overcast,20,2012-11-18 18:53:00
2:53 PM,55.9,39.9,55,30.41,10.0,NE,15.0,-,N/A,,Mostly Cloudy,40,2012-11-18 19:53:00
3:53 PM,55.0,39.0,55,30.41,10.0,NE,11.5,-,N/A,,Clear,50,2012-11-18 20:53:00
4:53 PM,53.1,39.0,59,30.41,10.0,NNE,12.7,18.4,N/A,,Clear,30,2012-11-18 21:53:00
5:53 PM,53.1,39.0,59,30.42,10.0,NE,11.5,-,N/A,,Overcast,40,2012-11-18 22:53:00
6:53 PM,53.1,39.0,59,30.42,10.0,NNE,12.7,18.4,N/A,,Overcast,30,2012-11-18 23:53:00
7:53 PM,52.0,37.9,59,30.42,10.0,NNE,10.4,-,N/A,,Overcast,30,2012-11-19 00:53:00
8:04 PM,51.8,37.4,58,30.44,10.0,NNE,9.2,20.7,N/A,,Overcast,20,2012-11-19 01:04:00
8:21 PM,51.8,37.4,58,30.44,10.0,NNE,11.5,19.6,N/A,,Overcast,30,2012-11-19 01:21:00
8:53 PM,51.1,37.9,61,30.42,10.0,NNE,12.7,-,N/A,,Overcast,30,2012-11-19 01:53:00
9:26 PM,51.8,37.4,58,30.44,10.0,NNE,11.5,-,N/A,,Overcast,30,2012-11-19 02:26:00
9:53 PM,51.1,37.9,61,30.42,10.0,NE,11.5,21.9,N/A,,Overcast,40,2012-11-19 02:53:00
10:53 PM,51.1,37.9,61,30.41,10.0,NE,13.8,-,N/A,,Overcast,40,2012-11-19 03:53:00
11:53 PM,50.0,37.9,63,30.40,10.0,NNE,10.4,18.4,N/A,,Overcast,30,2012-11-19 04:53:00